EJU61MT EDDM-LIMC
Flight info
| Callsign | EJU61MT |
|---|---|
| Flight time | 0h 51m |
| Altitude | 28000 |
| Route | MERSI4E MERSI Y100 ATMAX Z999 BEMKI L607 XEBIX Y740 NATAG DCT LORLO DCT ATPED DCT LUSIL DCT EVRIP |
| Aircraft | A320/M-SDE2E3FGHIJ1RWXYZ/LB1 |
Departure
| Time | 2026-05-06 07:37 |
|---|---|
| Airport | Munich Airport (EDDM) |
Arrival
| Time | 2026-05-06 08:28 |
|---|---|
| Airport | Milan Malpensa International Airport (LIMC) |
| Time | Latitude | Longitude | Altitude | Speed | Heading |
|---|---|---|---|---|---|
| 2026-05-06 07:10 | 48.35131 | 11.78341 | 1540 ft | 0 kts | 83° |
| 2026-05-06 07:27 | 48.35129 | 11.78324 | 1475 ft | 3 kts | 84° |
| 2026-05-06 07:27 | 48.35128 | 11.78294 | 1475 ft | 3 kts | 88° |
| 2026-05-06 07:27 | 48.35128 | 11.78264 | 1475 ft | 3 kts | 93° |
| 2026-05-06 07:27 | 48.35130 | 11.78234 | 1476 ft | 3 kts | 104° |
| 2026-05-06 07:28 | 48.35136 | 11.78207 | 1478 ft | 3 kts | 133° |
| 2026-05-06 07:28 | 48.35147 | 11.78195 | 1473 ft | 1 kts | 173° |
| 2026-05-06 07:28 | 48.35152 | 11.78195 | 1473 ft | 0 kts | 173° |
| 2026-05-06 07:31 | 48.35103 | 11.78203 | 1481 ft | 10 kts | 173° |
| 2026-05-06 07:31 | 48.35034 | 11.78214 | 1478 ft | 10 kts | 173° |
| 2026-05-06 07:31 | 48.34967 | 11.78226 | 1476 ft | 10 kts | 173° |
| 2026-05-06 07:31 | 48.34901 | 11.78207 | 1485 ft | 12 kts | 218° |
| 2026-05-06 07:32 | 48.34875 | 11.78085 | 1485 ft | 13 kts | 249° |
| 2026-05-06 07:32 | 48.34792 | 11.78041 | 1485 ft | 15 kts | 174° |
| 2026-05-06 07:32 | 48.34682 | 11.78060 | 1485 ft | 17 kts | 173° |
| 2026-05-06 07:32 | 48.34579 | 11.78123 | 1479 ft | 17 kts | 114° |
| 2026-05-06 07:33 | 48.34585 | 11.78306 | 1480 ft | 18 kts | 83° |
| 2026-05-06 07:33 | 48.34601 | 11.78495 | 1485 ft | 19 kts | 83° |
| 2026-05-06 07:33 | 48.34615 | 11.78697 | 1485 ft | 20 kts | 84° |
| 2026-05-06 07:33 | 48.34632 | 11.78913 | 1485 ft | 21 kts | 83° |
| 2026-05-06 07:34 | 48.34650 | 11.79145 | 1477 ft | 23 kts | 83° |
| 2026-05-06 07:34 | 48.34668 | 11.79387 | 1479 ft | 24 kts | 83° |
| 2026-05-06 07:34 | 48.34687 | 11.79638 | 1485 ft | 25 kts | 83° |
| 2026-05-06 07:34 | 48.34708 | 11.79892 | 1485 ft | 24 kts | 83° |
| 2026-05-06 07:35 | 48.34739 | 11.80124 | 1475 ft | 21 kts | 63° |
| 2026-05-06 07:35 | 48.34685 | 11.80251 | 1477 ft | 16 kts | 164° |
| 2026-05-06 07:35 | 48.34601 | 11.80264 | 1482 ft | 11 kts | 174° |
| 2026-05-06 07:35 | 48.34508 | 11.80276 | 1475 ft | 16 kts | 182° |
| 2026-05-06 07:36 | 48.34458 | 11.80160 | 1485 ft | 17 kts | 266° |
| 2026-05-06 07:36 | 48.34444 | 11.79937 | 1485 ft | 38 kts | 264° |
| 2026-05-06 07:36 | 48.34380 | 11.79175 | 1486 ft | 106 kts | 263° |
| 2026-05-06 07:36 | 48.34275 | 11.77799 | 1475 ft | 156 kts | 263° |
| 2026-05-06 07:37 | 48.34152 | 11.76116 | 1994 ft | 162 kts | 264° |
| 2026-05-06 07:37 | 48.34060 | 11.74421 | 2689 ft | 165 kts | 265° |
| 2026-05-06 07:37 | 48.33929 | 11.72610 | 3052 ft | 185 kts | 263° |
| 2026-05-06 07:37 | 48.33764 | 11.70576 | 3375 ft | 209 kts | 263° |
| 2026-05-06 07:38 | 48.33577 | 11.68322 | 3947 ft | 223 kts | 263° |
| 2026-05-06 07:38 | 48.33383 | 11.65970 | 4738 ft | 229 kts | 263° |
| 2026-05-06 07:38 | 48.33191 | 11.63553 | 5416 ft | 242 kts | 263° |
| 2026-05-06 07:38 | 48.33000 | 11.60925 | 5920 ft | 261 kts | 263° |
| 2026-05-06 07:39 | 48.32806 | 11.58169 | 6725 ft | 268 kts | 263° |
| 2026-05-06 07:39 | 48.32606 | 11.55373 | 7597 ft | 271 kts | 262° |
| 2026-05-06 07:39 | 48.32403 | 11.52538 | 8479 ft | 274 kts | 262° |
| 2026-05-06 07:39 | 48.32197 | 11.49672 | 9373 ft | 278 kts | 262° |
| 2026-05-06 07:40 | 48.31986 | 11.46770 | 10203 ft | 281 kts | 261° |
| 2026-05-06 07:40 | 48.31767 | 11.43836 | 10977 ft | 284 kts | 261° |
| 2026-05-06 07:40 | 48.31543 | 11.40869 | 11764 ft | 288 kts | 261° |
| 2026-05-06 07:40 | 48.31317 | 11.37867 | 12569 ft | 291 kts | 261° |
| 2026-05-06 07:41 | 48.31087 | 11.34834 | 13352 ft | 294 kts | 260° |
| 2026-05-06 07:41 | 48.30584 | 11.31869 | 14052 ft | 294 kts | 244° |
| 2026-05-06 07:41 | 48.29503 | 11.29280 | 14732 ft | 295 kts | 228° |
| 2026-05-06 07:41 | 48.27899 | 11.27224 | 14917 ft | 315 kts | 210° |
| 2026-05-06 07:42 | 48.25836 | 11.25808 | 15053 ft | 336 kts | 203° |
| 2026-05-06 07:42 | 48.23641 | 11.24422 | 15443 ft | 347 kts | 203° |
| 2026-05-06 07:42 | 48.21397 | 11.23010 | 16050 ft | 351 kts | 204° |
| 2026-05-06 07:42 | 48.19131 | 11.21579 | 16703 ft | 354 kts | 204° |
| 2026-05-06 07:43 | 48.16857 | 11.20138 | 17354 ft | 357 kts | 204° |
| 2026-05-06 07:43 | 48.14562 | 11.18677 | 17996 ft | 360 kts | 204° |
| 2026-05-06 07:43 | 48.12316 | 11.17010 | 18543 ft | 361 kts | 212° |
| 2026-05-06 07:43 | 48.10168 | 11.15054 | 19118 ft | 362 kts | 212° |
| 2026-05-06 07:44 | 48.08020 | 11.13103 | 19786 ft | 361 kts | 212° |
| 2026-05-06 07:44 | 48.05868 | 11.11156 | 20362 ft | 363 kts | 211° |
| 2026-05-06 07:44 | 48.03730 | 11.09223 | 20874 ft | 365 kts | 211° |
| 2026-05-06 07:44 | 48.01575 | 11.07202 | 21402 ft | 367 kts | 216° |
| 2026-05-06 07:45 | 47.99676 | 11.04654 | 21927 ft | 369 kts | 227° |
| 2026-05-06 07:45 | 47.98157 | 11.01543 | 22451 ft | 373 kts | 238° |
| 2026-05-06 07:45 | 47.97103 | 10.97976 | 22966 ft | 379 kts | 249° |
| 2026-05-06 07:45 | 47.96411 | 10.94160 | 23442 ft | 383 kts | 251° |
| 2026-05-06 07:46 | 47.95727 | 10.90318 | 23866 ft | 384 kts | 251° |
| 2026-05-06 07:46 | 47.95035 | 10.86469 | 24292 ft | 385 kts | 251° |
| 2026-05-06 07:46 | 47.94335 | 10.82601 | 24727 ft | 387 kts | 251° |
| 2026-05-06 07:46 | 47.93632 | 10.78715 | 25147 ft | 387 kts | 250° |
| 2026-05-06 07:47 | 47.92721 | 10.74965 | 25540 ft | 384 kts | 241° |
| 2026-05-06 07:47 | 47.91397 | 10.71537 | 25975 ft | 382 kts | 233° |
| 2026-05-06 07:47 | 47.89889 | 10.68263 | 26385 ft | 383 kts | 233° |
| 2026-05-06 07:47 | 47.88381 | 10.64984 | 26782 ft | 384 kts | 233° |
| 2026-05-06 07:48 | 47.86870 | 10.61693 | 27220 ft | 385 kts | 233° |
| 2026-05-06 07:48 | 47.85360 | 10.58397 | 27573 ft | 387 kts | 233° |
| 2026-05-06 07:48 | 47.83845 | 10.55090 | 27803 ft | 388 kts | 233° |
| 2026-05-06 07:48 | 47.82341 | 10.51806 | 27836 ft | 382 kts | 233° |
| 2026-05-06 07:49 | 47.80850 | 10.48560 | 27832 ft | 379 kts | 233° |
| 2026-05-06 07:49 | 47.79361 | 10.45331 | 27833 ft | 378 kts | 233° |
| 2026-05-06 07:49 | 47.77874 | 10.42115 | 27833 ft | 378 kts | 233° |
| 2026-05-06 07:49 | 47.76230 | 10.39091 | 27832 ft | 376 kts | 224° |
| 2026-05-06 07:50 | 47.74220 | 10.36631 | 27828 ft | 375 kts | 213° |
| 2026-05-06 07:50 | 47.71905 | 10.34824 | 27830 ft | 377 kts | 203° |
| 2026-05-06 07:50 | 47.69374 | 10.33747 | 27830 ft | 380 kts | 193° |
| 2026-05-06 07:50 | 47.66759 | 10.33130 | 27829 ft | 381 kts | 193° |
| 2026-05-06 07:51 | 47.64154 | 10.32516 | 27829 ft | 381 kts | 193° |
| 2026-05-06 07:51 | 47.61532 | 10.31895 | 27828 ft | 381 kts | 192° |
| 2026-05-06 07:51 | 47.58886 | 10.31600 | 27825 ft | 386 kts | 182° |
| 2026-05-06 07:51 | 47.56197 | 10.32127 | 27824 ft | 394 kts | 172° |
| 2026-05-06 07:52 | 47.53592 | 10.33515 | 27808 ft | 403 kts | 160° |
| 2026-05-06 07:52 | 47.51198 | 10.35747 | 27808 ft | 413 kts | 150° |
| 2026-05-06 07:52 | 47.48898 | 10.38296 | 27799 ft | 413 kts | 150° |
| 2026-05-06 07:52 | 47.46597 | 10.40819 | 27788 ft | 412 kts | 150° |
| 2026-05-06 07:53 | 47.44288 | 10.43333 | 27793 ft | 412 kts | 150° |
| 2026-05-06 07:53 | 47.41916 | 10.45677 | 27752 ft | 407 kts | 158° |
| 2026-05-06 07:53 | 47.39397 | 10.47355 | 27800 ft | 401 kts | 167° |
| 2026-05-06 07:53 | 47.36725 | 10.48386 | 27813 ft | 395 kts | 176° |
| 2026-05-06 07:54 | 47.34011 | 10.48838 | 27803 ft | 391 kts | 180° |
| 2026-05-06 07:54 | 47.31305 | 10.49213 | 27809 ft | 392 kts | 179° |
| 2026-05-06 07:54 | 47.28594 | 10.49593 | 27804 ft | 392 kts | 179° |
| 2026-05-06 07:54 | 47.25880 | 10.49983 | 27793 ft | 391 kts | 179° |
| 2026-05-06 07:55 | 47.23163 | 10.50376 | 27807 ft | 392 kts | 179° |
| 2026-05-06 07:55 | 47.20445 | 10.50766 | 27809 ft | 393 kts | 179° |
| 2026-05-06 07:55 | 47.17728 | 10.51157 | 27815 ft | 393 kts | 179° |
| 2026-05-06 07:55 | 47.15003 | 10.51551 | 27834 ft | 393 kts | 179° |
| 2026-05-06 07:56 | 47.12285 | 10.51943 | 27826 ft | 392 kts | 179° |
| 2026-05-06 07:56 | 47.09572 | 10.52334 | 27824 ft | 392 kts | 179° |
| 2026-05-06 07:56 | 47.06861 | 10.52731 | 27829 ft | 392 kts | 178° |
| 2026-05-06 07:56 | 47.04172 | 10.53571 | 27847 ft | 398 kts | 169° |
| 2026-05-06 07:57 | 47.01530 | 10.54771 | 27836 ft | 398 kts | 168° |
| 2026-05-06 07:57 | 46.98882 | 10.55975 | 27842 ft | 399 kts | 168° |
| 2026-05-06 07:57 | 46.96230 | 10.57177 | 27860 ft | 398 kts | 168° |
| 2026-05-06 07:57 | 46.93579 | 10.58373 | 27860 ft | 398 kts | 168° |
| 2026-05-06 07:58 | 46.90936 | 10.59561 | 27854 ft | 397 kts | 169° |
| 2026-05-06 07:58 | 46.88291 | 10.60749 | 27865 ft | 398 kts | 169° |
| 2026-05-06 07:58 | 46.86542 | 10.61536 | 27866 ft | 398 kts | 169° |
| 2026-05-06 07:58 | 46.83900 | 10.62728 | 27872 ft | 397 kts | 169° |
| 2026-05-06 07:59 | 46.81255 | 10.63921 | 27872 ft | 397 kts | 169° |
| 2026-05-06 07:59 | 46.78619 | 10.65102 | 27871 ft | 397 kts | 169° |
| 2026-05-06 07:59 | 46.75113 | 10.66530 | 27876 ft | 392 kts | 175° |
| 2026-05-06 07:59 | 46.72427 | 10.66907 | 27880 ft | 385 kts | 185° |
| 2026-05-06 08:00 | 46.70627 | 10.66752 | 27892 ft | 381 kts | 191° |
| 2026-05-06 08:00 | 46.68052 | 10.65958 | 27899 ft | 377 kts | 199° |
| 2026-05-06 08:00 | 46.65538 | 10.64844 | 27908 ft | 377 kts | 199° |
| 2026-05-06 08:00 | 46.63025 | 10.63737 | 27924 ft | 377 kts | 199° |
| 2026-05-06 08:01 | 46.60515 | 10.62640 | 27920 ft | 376 kts | 199° |
| 2026-05-06 08:01 | 46.58017 | 10.61550 | 27906 ft | 375 kts | 199° |
| 2026-05-06 08:01 | 46.55517 | 10.60454 | 27916 ft | 376 kts | 199° |
| 2026-05-06 08:01 | 46.53009 | 10.59356 | 27923 ft | 377 kts | 199° |
| 2026-05-06 08:02 | 46.50529 | 10.58273 | 27925 ft | 377 kts | 199° |
| 2026-05-06 08:02 | 46.48022 | 10.57180 | 27922 ft | 376 kts | 199° |
| 2026-05-06 08:02 | 46.45512 | 10.56084 | 27921 ft | 376 kts | 199° |
| 2026-05-06 08:02 | 46.43008 | 10.54993 | 27932 ft | 376 kts | 199° |
| 2026-05-06 08:03 | 46.40505 | 10.53901 | 27937 ft | 376 kts | 199° |
| 2026-05-06 08:03 | 46.38003 | 10.52812 | 27922 ft | 375 kts | 199° |
| 2026-05-06 08:03 | 46.35501 | 10.51726 | 27918 ft | 375 kts | 199° |
| 2026-05-06 08:03 | 46.33002 | 10.50642 | 27921 ft | 375 kts | 199° |
| 2026-05-06 08:04 | 46.30502 | 10.49553 | 27932 ft | 376 kts | 199° |
| 2026-05-06 08:04 | 46.27997 | 10.48463 | 27924 ft | 375 kts | 199° |
| 2026-05-06 08:04 | 46.25501 | 10.47378 | 27925 ft | 375 kts | 199° |
| 2026-05-06 08:04 | 46.22998 | 10.46298 | 27922 ft | 375 kts | 199° |
| 2026-05-06 08:05 | 46.20500 | 10.45220 | 27914 ft | 374 kts | 200° |
| 2026-05-06 08:05 | 46.18110 | 10.43791 | 27914 ft | 371 kts | 210° |
| 2026-05-06 08:05 | 46.15988 | 10.41689 | 27914 ft | 371 kts | 220° |
| 2026-05-06 08:05 | 46.14213 | 10.38979 | 27949 ft | 373 kts | 231° |
| 2026-05-06 08:06 | 46.12851 | 10.35786 | 27938 ft | 377 kts | 239° |
| 2026-05-06 08:06 | 46.11669 | 10.32418 | 27931 ft | 376 kts | 239° |
| 2026-05-06 08:06 | 46.10484 | 10.29057 | 27918 ft | 376 kts | 239° |
| 2026-05-06 08:06 | 46.09299 | 10.25704 | 27913 ft | 375 kts | 239° |
| 2026-05-06 08:07 | 46.08111 | 10.22362 | 27915 ft | 375 kts | 239° |
| 2026-05-06 08:07 | 46.06916 | 10.19011 | 27797 ft | 376 kts | 239° |
| 2026-05-06 08:07 | 46.05721 | 10.15666 | 27529 ft | 376 kts | 239° |
| 2026-05-06 08:07 | 46.04526 | 10.12321 | 27264 ft | 375 kts | 239° |
| 2026-05-06 08:08 | 46.03351 | 10.08975 | 27000 ft | 375 kts | 240° |
| 2026-05-06 08:08 | 46.02213 | 10.05608 | 26740 ft | 374 kts | 240° |
| 2026-05-06 08:08 | 46.01112 | 10.02280 | 26487 ft | 373 kts | 241° |
| 2026-05-06 08:08 | 46.00007 | 9.98916 | 26144 ft | 370 kts | 241° |
| 2026-05-06 08:09 | 45.98906 | 9.95591 | 25549 ft | 367 kts | 240° |
| 2026-05-06 08:09 | 45.97805 | 9.92302 | 24998 ft | 364 kts | 240° |
| 2026-05-06 08:09 | 45.96705 | 9.89043 | 24409 ft | 362 kts | 240° |
| 2026-05-06 08:09 | 45.95605 | 9.85805 | 23855 ft | 359 kts | 240° |
| 2026-05-06 08:10 | 45.94508 | 9.82581 | 23279 ft | 357 kts | 240° |
| 2026-05-06 08:10 | 45.93428 | 9.79398 | 22759 ft | 352 kts | 240° |
| 2026-05-06 08:10 | 45.92369 | 9.76263 | 22274 ft | 348 kts | 240° |
| 2026-05-06 08:10 | 45.91320 | 9.73159 | 21827 ft | 344 kts | 240° |
| 2026-05-06 08:11 | 45.90273 | 9.70073 | 21360 ft | 342 kts | 240° |
| 2026-05-06 08:11 | 45.89238 | 9.67028 | 20936 ft | 338 kts | 240° |
| 2026-05-06 08:11 | 45.88208 | 9.64013 | 20498 ft | 335 kts | 240° |
| 2026-05-06 08:11 | 45.87182 | 9.61025 | 20050 ft | 332 kts | 240° |
| 2026-05-06 08:12 | 45.86175 | 9.58089 | 19619 ft | 330 kts | 240° |
| 2026-05-06 08:12 | 45.85165 | 9.55140 | 19174 ft | 329 kts | 239° |
| 2026-05-06 08:12 | 45.84156 | 9.52194 | 18724 ft | 330 kts | 239° |
| 2026-05-06 08:12 | 45.83151 | 9.49267 | 18265 ft | 329 kts | 239° |
| 2026-05-06 08:13 | 45.82137 | 9.46320 | 17762 ft | 330 kts | 239° |
| 2026-05-06 08:13 | 45.81122 | 9.43368 | 17310 ft | 330 kts | 239° |
| 2026-05-06 08:13 | 45.80121 | 9.40452 | 17160 ft | 322 kts | 239° |
| 2026-05-06 08:13 | 45.79143 | 9.37610 | 17033 ft | 315 kts | 239° |
| 2026-05-06 08:14 | 45.78182 | 9.34825 | 16896 ft | 309 kts | 239° |
| 2026-05-06 08:14 | 45.77235 | 9.32087 | 16759 ft | 305 kts | 239° |
| 2026-05-06 08:14 | 45.76310 | 9.29415 | 16628 ft | 300 kts | 239° |
| 2026-05-06 08:14 | 45.75397 | 9.26783 | 16268 ft | 298 kts | 239° |
| 2026-05-06 08:15 | 45.74487 | 9.24157 | 15749 ft | 293 kts | 239° |
| 2026-05-06 08:15 | 45.73585 | 9.21554 | 15157 ft | 289 kts | 239° |
| 2026-05-06 08:15 | 45.72696 | 9.18986 | 14678 ft | 287 kts | 239° |
| 2026-05-06 08:15 | 45.71805 | 9.16423 | 14203 ft | 290 kts | 239° |
| 2026-05-06 08:16 | 45.70902 | 9.13831 | 13822 ft | 290 kts | 239° |
| 2026-05-06 08:16 | 45.70000 | 9.11247 | 13355 ft | 292 kts | 239° |
| 2026-05-06 08:16 | 45.69104 | 9.08670 | 13048 ft | 288 kts | 239° |
| 2026-05-06 08:16 | 45.68212 | 9.06112 | 12659 ft | 287 kts | 239° |
| 2026-05-06 08:17 | 45.67321 | 9.03560 | 12285 ft | 286 kts | 239° |
| 2026-05-06 08:17 | 45.66437 | 9.01028 | 11689 ft | 283 kts | 240° |
| 2026-05-06 08:17 | 45.65559 | 8.98514 | 11060 ft | 281 kts | 240° |
| 2026-05-06 08:17 | 45.64691 | 8.96030 | 10568 ft | 278 kts | 240° |
| 2026-05-06 08:18 | 45.63820 | 8.93555 | 10124 ft | 279 kts | 240° |
| 2026-05-06 08:18 | 45.62908 | 8.91173 | 9987 ft | 266 kts | 230° |
| 2026-05-06 08:18 | 45.61600 | 8.89453 | 9973 ft | 249 kts | 209° |
| 2026-05-06 08:18 | 45.59994 | 8.88557 | 9812 ft | 251 kts | 189° |
| 2026-05-06 08:19 | 45.58257 | 8.88615 | 9452 ft | 251 kts | 170° |
| 2026-05-06 08:19 | 45.56553 | 8.89108 | 9130 ft | 248 kts | 170° |
| 2026-05-06 08:19 | 45.54866 | 8.89578 | 8821 ft | 246 kts | 170° |
| 2026-05-06 08:19 | 45.53196 | 8.90033 | 8521 ft | 243 kts | 170° |
| 2026-05-06 08:20 | 45.51545 | 8.90480 | 8222 ft | 240 kts | 170° |
| 2026-05-06 08:20 | 45.49912 | 8.90921 | 7925 ft | 237 kts | 170° |
| 2026-05-06 08:20 | 45.48300 | 8.91358 | 7633 ft | 235 kts | 169° |
| 2026-05-06 08:20 | 45.46703 | 8.91790 | 7351 ft | 233 kts | 169° |
| 2026-05-06 08:21 | 45.45119 | 8.92218 | 7053 ft | 230 kts | 169° |
| 2026-05-06 08:21 | 45.43550 | 8.92642 | 6771 ft | 228 kts | 169° |
| 2026-05-06 08:21 | 45.42000 | 8.93062 | 6549 ft | 226 kts | 170° |
| 2026-05-06 08:21 | 45.40454 | 8.93212 | 6254 ft | 223 kts | 191° |
| 2026-05-06 08:22 | 45.39089 | 8.92225 | 5976 ft | 224 kts | 222° |
| 2026-05-06 08:22 | 45.38322 | 8.90287 | 5544 ft | 231 kts | 253° |
| 2026-05-06 08:22 | 45.38015 | 8.88058 | 5154 ft | 228 kts | 255° |
| 2026-05-06 08:22 | 45.37778 | 8.85875 | 4991 ft | 218 kts | 264° |
| 2026-05-06 08:23 | 45.37963 | 8.83775 | 4938 ft | 212 kts | 283° |
| 2026-05-06 08:23 | 45.38601 | 8.81899 | 4856 ft | 213 kts | 302° |
| 2026-05-06 08:23 | 45.39639 | 8.80378 | 4611 ft | 219 kts | 322° |
| 2026-05-06 08:23 | 45.41016 | 8.79422 | 4327 ft | 222 kts | 345° |
| 2026-05-06 08:24 | 45.42529 | 8.78984 | 4040 ft | 223 kts | 349° |
| 2026-05-06 08:24 | 45.44040 | 8.78573 | 3714 ft | 218 kts | 350° |
| 2026-05-06 08:24 | 45.45481 | 8.78177 | 3506 ft | 209 kts | 351° |
| 2026-05-06 08:24 | 45.46873 | 8.77795 | 3361 ft | 198 kts | 351° |
| 2026-05-06 08:25 | 45.48187 | 8.77434 | 3246 ft | 186 kts | 351° |
| 2026-05-06 08:25 | 45.49422 | 8.77094 | 3135 ft | 176 kts | 352° |
| 2026-05-06 08:25 | 45.50595 | 8.76772 | 2958 ft | 168 kts | 353° |
| 2026-05-06 08:25 | 45.51727 | 8.76461 | 2722 ft | 164 kts | 353° |
| 2026-05-06 08:26 | 45.52838 | 8.76156 | 2501 ft | 162 kts | 354° |
| 2026-05-06 08:26 | 45.53942 | 8.75853 | 2283 ft | 161 kts | 354° |
| 2026-05-06 08:26 | 45.55036 | 8.75552 | 2075 ft | 160 kts | 354° |
| 2026-05-06 08:26 | 45.56116 | 8.75254 | 1855 ft | 157 kts | 354° |
| 2026-05-06 08:27 | 45.57185 | 8.74960 | 1645 ft | 156 kts | 354° |
| 2026-05-06 08:27 | 45.58241 | 8.74669 | 1429 ft | 153 kts | 353° |
| 2026-05-06 08:27 | 45.59278 | 8.74385 | 1212 ft | 150 kts | 353° |
| 2026-05-06 08:27 | 45.60270 | 8.74111 | 1010 ft | 154 kts | 353° |
| 2026-05-06 08:28 | 45.61175 | 8.73857 | 843 ft | 154 kts | 353° |
| 2026-05-06 08:28 | 45.62134 | 8.73590 | 774 ft | 142 kts | 354° |
| 2026-05-06 08:28 | 45.62994 | 8.73377 | 743 ft | 93 kts | 350° |
| 2026-05-06 08:28 | 45.63353 | 8.73263 | 743 ft | 30 kts | 346° |
| 2026-05-06 08:29 | 45.63550 | 8.73204 | 747 ft | 27 kts | 346° |
| 2026-05-06 08:29 | 45.63713 | 8.73077 | 748 ft | 26 kts | 323° |
| 2026-05-06 08:29 | 45.63824 | 8.72902 | 749 ft | 19 kts | 301° |
| 2026-05-06 08:29 | 45.63884 | 8.72772 | 752 ft | 11 kts | 305° |
| 2026-05-06 08:30 | 45.63921 | 8.72698 | 749 ft | 6 kts | 305° |
| 2026-05-06 08:30 | 45.63922 | 8.72695 | 748 ft | 0 kts | 305° |
| 2026-05-06 08:31 | 45.63925 | 8.72688 | 749 ft | 2 kts | 305° |
| 2026-05-06 08:31 | 45.63947 | 8.72642 | 749 ft | 9 kts | 302° |
| 2026-05-06 08:31 | 45.63956 | 8.72573 | 752 ft | 6 kts | 269° |
| 2026-05-06 08:31 | 45.63953 | 8.72531 | 750 ft | 7 kts | 262° |
| 2026-05-06 08:32 | 45.63941 | 8.72438 | 750 ft | 8 kts | 257° |
| 2026-05-06 08:32 | 45.63950 | 8.72362 | 752 ft | 13 kts | 312° |
| 2026-05-06 08:32 | 45.64051 | 8.72324 | 748 ft | 13 kts | 351° |
| 2026-05-06 08:32 | 45.64127 | 8.72303 | 747 ft | 9 kts | 347° |
| 2026-05-06 08:33 | 45.64176 | 8.72287 | 750 ft | 5 kts | 347° |
| 2026-05-06 08:33 | 45.64219 | 8.72273 | 750 ft | 14 kts | 348° |
| 2026-05-06 08:33 | 45.64318 | 8.72245 | 749 ft | 13 kts | 349° |
| 2026-05-06 08:33 | 45.64408 | 8.72245 | 752 ft | 14 kts | 34° |
| 2026-05-06 08:34 | 45.64442 | 8.72381 | 749 ft | 15 kts | 79° |
| 2026-05-06 08:34 | 45.64513 | 8.72492 | 750 ft | 3 kts | 14° |
| 2026-05-06 08:34 | 45.64537 | 8.72485 | 750 ft | 2 kts | 349° |
| 2026-05-06 08:35 | 45.64545 | 8.72483 | 748 ft | 2 kts | 350° |
| 2026-05-06 08:35 | 45.64546 | 8.72483 | 748 ft | 0 kts | 350° |